Terminal Aerodrome Forecast
Issued by NWS

Home | Current Version | Previous Version | Text Only | Print | Product List | Glossary On
Versions: 1 2 3 4 5 6 7 8 9 10 11 12 13 14 15 16 17 18 19 20
807
FTUS46 KLOX 252340
TAFVNY
TAF
KVNY 252340Z 2600/2624 15007KT P6SM SCT060
     FM260200 VRB03KT P6SM SKC
     FM260900 VRB03KT P6SM BKN025
     FM261800 16006KT P6SM SCT030
     FM262100 15008KT P6SM SKC=

USA.gov is the U.S. government's official web portal to all federal, state and local government web resources and services.